createdAt,value
2022-08-03T00:01:54.666Z,28.14
2022-08-03T00:04:34.093Z,28.15
2022-08-03T00:07:04.691Z,27.95
2022-08-03T00:09:35.427Z,27.82
2022-08-03T00:12:06.293Z,27.31
2022-08-03T00:14:36.584Z,26.86
2022-08-03T00:17:09.419Z,26.20
2022-08-03T00:19:39.630Z,25.93
2022-08-03T00:22:09.971Z,26.00
2022-08-03T00:24:40.249Z,26.01
2022-08-03T00:27:10.468Z,26.39
2022-08-03T00:29:59.708Z,26.85
2022-08-03T00:32:33.231Z,26.93
2022-08-03T00:35:09.303Z,26.87
2022-08-03T00:37:42.018Z,27.05
2022-08-03T00:40:15.483Z,27.17
2022-08-03T00:42:54.037Z,27.47
2022-08-03T00:45:26.767Z,27.64
2022-08-03T00:48:00.507Z,27.89
2022-08-03T00:50:32.779Z,27.13
2022-08-03T00:53:03.408Z,26.61
2022-08-03T00:55:34.359Z,26.59
2022-08-03T00:58:06.932Z,26.58
2022-08-03T01:00:39.113Z,26.15
2022-08-03T01:03:13.175Z,26.07
2022-08-03T01:05:55.542Z,26.45
2022-08-03T01:08:40.540Z,26.80
2022-08-03T01:11:17.874Z,27.23
2022-08-03T01:14:01.715Z,27.71
2022-08-03T01:16:55.374Z,27.65
2022-08-03T01:19:40.138Z,27.50
2022-08-03T01:22:25.802Z,27.33
2022-08-03T01:25:05.868Z,27.25
2022-08-03T01:27:54.302Z,27.24
2022-08-03T01:30:30.907Z,27.54
2022-08-03T01:33:06.878Z,27.67
2022-08-03T01:35:42.512Z,27.89
2022-08-03T01:38:16.703Z,27.94
2022-08-03T01:40:49.251Z,27.86
2022-08-03T01:43:54.920Z,27.57
2022-08-03T01:46:16.581Z,27.81
2022-08-03T01:48:49.422Z,27.84
2022-08-03T01:51:21.650Z,27.21
2022-08-03T01:53:55.052Z,27.24
2022-08-03T01:56:27.966Z,27.32
2022-08-03T01:59:00.792Z,27.40
2022-08-03T02:02:32.117Z,27.34
2022-08-03T02:04:27.163Z,27.17
2022-08-03T02:07:01.077Z,27.28
2022-08-03T02:09:34.182Z,27.29
2022-08-03T02:12:05.859Z,27.20
2022-08-03T02:14:37.600Z,26.76
2022-08-03T02:17:11.051Z,26.13
2022-08-03T02:19:42.740Z,25.65
2022-08-03T02:22:16.025Z,25.68
2022-08-03T02:24:46.506Z,25.76
2022-08-03T02:27:24.640Z,26.07
2022-08-03T02:29:59.497Z,26.18
2022-08-03T02:32:37.559Z,25.84
2022-08-03T02:35:12.793Z,25.64
2022-08-03T02:37:49.748Z,26.50
2022-08-03T02:40:22.273Z,26.90
2022-08-03T02:42:56.713Z,26.85
2022-08-03T02:45:30.030Z,26.93
2022-08-03T02:48:05.972Z,27.13
2022-08-03T02:50:37.984Z,27.17
2022-08-03T02:53:11.020Z,27.58
2022-08-03T02:55:45.701Z,27.39
2022-08-03T02:58:17.430Z,27.39
2022-08-03T03:00:48.164Z,27.46
2022-08-03T03:03:21.719Z,27.11
2022-08-03T03:05:57.806Z,26.38
2022-08-03T03:08:30.515Z,25.96
2022-08-03T03:11:03.540Z,24.94
2022-08-03T03:13:34.923Z,24.91
2022-08-03T03:16:07.841Z,25.48
2022-08-03T03:18:41.496Z,25.69
2022-08-03T03:21:13.654Z,25.79
2022-08-03T03:23:45.103Z,26.17
2022-08-03T03:26:17.396Z,26.03
2022-08-03T03:28:48.266Z,26.52
2022-08-03T03:31:18.754Z,26.39
2022-08-03T03:33:51.912Z,26.52
2022-08-03T03:36:22.524Z,26.31
2022-08-03T03:38:53.773Z,25.90
2022-08-03T03:41:24.155Z,25.49
2022-08-03T03:43:54.638Z,25.79
2022-08-03T03:46:25.020Z,25.88
2022-08-03T03:48:57.956Z,26.54
2022-08-03T03:51:28.262Z,26.57
2022-08-03T03:53:59.788Z,26.88
2022-08-03T03:56:30.714Z,27.22
2022-08-03T03:59:00.910Z,27.26
2022-08-03T04:01:31.699Z,27.63
2022-08-03T04:04:25.098Z,27.96
2022-08-03T04:07:07.576Z,27.99
2022-08-03T04:09:51.513Z,28.08
2022-08-03T04:12:22.855Z,27.24
2022-08-03T04:14:55.037Z,27.28
2022-08-03T04:17:29.282Z,26.92
2022-08-03T04:20:03.406Z,26.63
2022-08-03T04:22:35.956Z,26.63
2022-08-03T04:25:10.303Z,26.65
2022-08-03T04:27:43.552Z,26.45
2022-08-03T04:30:14.754Z,26.88
2022-08-03T04:32:51.943Z,26.23
2022-08-03T04:36:01.431Z,26.20
2022-08-03T04:38:21.592Z,26.26
2022-08-03T04:40:52.261Z,25.71
2022-08-03T04:43:25.699Z,25.82
2022-08-03T04:45:57.993Z,26.05
2022-08-03T04:48:28.548Z,25.88
2022-08-03T04:51:04.605Z,25.86
2022-08-03T04:53:34.824Z,25.35
2022-08-03T04:56:08.541Z,25.20
2022-08-03T04:58:38.989Z,25.24
2022-08-03T05:01:09.246Z,25.29
2022-08-03T05:03:39.714Z,25.11
2022-08-03T05:06:12.589Z,25.01
2022-08-03T05:08:48.821Z,24.93
2022-08-03T05:11:21.574Z,24.88
2022-08-03T05:13:51.959Z,24.78
2022-08-03T05:16:22.307Z,24.73
2022-08-03T05:18:52.558Z,24.78
2022-08-03T05:21:25.369Z,24.84
2022-08-03T05:24:12.067Z,25.25
2022-08-03T05:26:42.291Z,25.83
2022-08-03T05:29:12.537Z,25.82
2022-08-03T05:31:42.967Z,25.71
2022-08-03T05:34:13.191Z,25.94
2022-08-03T05:36:45.963Z,25.71
2022-08-03T05:39:16.308Z,25.49
2022-08-03T05:41:46.499Z,25.81
2022-08-03T05:44:16.706Z,25.71
2022-08-03T05:46:46.885Z,25.55
2022-08-03T05:49:17.158Z,25.64
2022-08-03T05:52:08.350Z,25.36
2022-08-03T05:54:57.010Z,25.64
2022-08-03T05:57:28.034Z,25.67
2022-08-03T05:59:58.914Z,26.07
2022-08-03T06:02:29.678Z,25.99
2022-08-03T06:05:00.083Z,25.89
2022-08-03T06:07:32.955Z,25.83
2022-08-03T06:10:36.259Z,26.27
2022-08-03T06:12:54.106Z,26.30
2022-08-03T06:15:24.550Z,26.54
2022-08-03T06:18:01.494Z,26.43
2022-08-03T06:20:32.350Z,26.07
2022-08-03T06:23:05.211Z,26.18
2022-08-03T06:25:37.692Z,26.33
2022-08-03T06:28:14.973Z,26.90
2022-08-03T06:30:54.169Z,26.55
2022-08-03T06:33:25.700Z,26.57
2022-08-03T06:36:15.953Z,26.84
2022-08-03T06:38:48.747Z,26.93
2022-08-03T06:41:19.108Z,26.68
2022-08-03T06:44:03.506Z,26.64
2022-08-03T06:46:34.671Z,26.65
2022-08-03T06:49:05.036Z,26.59
2022-08-03T06:52:37.069Z,26.88
2022-08-03T06:54:28.204Z,27.30
2022-08-03T06:56:58.394Z,27.37
2022-08-03T07:00:08.544Z,27.30
2022-08-03T07:02:19.605Z,27.02
2022-08-03T07:04:50.184Z,27.33
2022-08-03T07:07:20.892Z,27.33
2022-08-03T07:09:57.752Z,27.64
2022-08-03T07:12:29.913Z,27.85
2022-08-03T07:15:02.961Z,27.81
2022-08-03T07:17:34.585Z,27.59
2022-08-03T07:20:06.073Z,27.57
2022-08-03T07:22:36.518Z,27.84
2022-08-03T07:25:10.098Z,27.71
2022-08-03T07:27:40.429Z,28.06
2022-08-03T07:30:12.245Z,28.04
2022-08-03T07:32:50.194Z,28.08
2022-08-03T07:35:24.474Z,28.10
2022-08-03T07:37:55.576Z,27.83
2022-08-03T07:40:31.614Z,28.09
2022-08-03T07:43:03.661Z,28.07
2022-08-03T07:45:34.837Z,27.91
2022-08-03T07:48:08.837Z,27.98
2022-08-03T07:50:42.430Z,28.35
2022-08-03T07:53:12.682Z,28.27
2022-08-03T07:55:45.579Z,28.30
2022-08-03T07:58:22.075Z,28.48
2022-08-03T08:00:54.785Z,28.35
2022-08-03T08:03:26.899Z,28.55
2022-08-03T08:05:57.135Z,28.72
2022-08-03T08:08:27.379Z,28.51
2022-08-03T08:11:00.235Z,28.37
2022-08-03T08:13:30.499Z,28.80
2022-08-03T08:16:00.738Z,28.67
2022-08-03T08:18:31.970Z,28.58
2022-08-03T08:21:03.544Z,28.82
2022-08-03T08:23:43.192Z,28.54
2022-08-03T08:26:17.741Z,28.84
2022-08-03T08:28:48.227Z,29.16
2022-08-03T08:31:18.518Z,29.13
2022-08-03T08:34:03.686Z,29.38
2022-08-03T08:36:35.858Z,29.08
2022-08-03T08:39:06.339Z,29.11
2022-08-03T08:41:39.315Z,29.18
2022-08-03T08:44:16.719Z,29.23
2022-08-03T08:46:47.669Z,29.49
2022-08-03T08:49:24.219Z,29.57
2022-08-03T08:52:00.712Z,29.52
2022-08-03T08:54:34.859Z,29.44
2022-08-03T08:57:26.891Z,29.56
2022-08-03T09:00:00.579Z,29.74
2022-08-03T09:02:33.630Z,29.72
2022-08-03T09:05:07.539Z,29.63
2022-08-03T09:07:38.302Z,29.62
2022-08-03T09:10:13.225Z,29.54
2022-08-03T09:12:47.097Z,29.61
2022-08-03T09:15:22.778Z,29.59
2022-08-03T09:17:54.028Z,29.76
2022-08-03T09:20:25.917Z,29.78
2022-08-03T09:22:59.148Z,29.92
2022-08-03T09:25:34.930Z,29.57
2022-08-03T09:28:52.886Z,29.46
2022-08-03T09:31:06.078Z,29.76
2022-08-03T09:33:36.388Z,29.74
2022-08-03T09:36:06.964Z,29.41
2022-08-03T09:38:37.274Z,29.56
2022-08-03T09:41:21.144Z,29.72
2022-08-03T09:43:57.261Z,29.72
2022-08-03T09:46:28.739Z,29.75
2022-08-03T09:49:13.678Z,29.47
2022-08-03T09:52:33.567Z,29.47
2022-08-03T09:54:35.497Z,29.44
2022-08-03T09:57:06.135Z,29.39
2022-08-03T09:59:41.093Z,29.42
2022-08-03T10:02:24.962Z,29.41
2022-08-03T10:04:56.207Z,29.52
2022-08-03T10:07:27.767Z,29.59
2022-08-03T10:10:29.105Z,29.60
2022-08-03T10:12:51.158Z,29.81
2022-08-03T10:16:22.946Z,29.88
2022-08-03T10:18:14.680Z,29.87
2022-08-03T10:20:49.777Z,29.63
2022-08-03T10:23:21.825Z,30.05
2022-08-03T10:25:58.044Z,29.63
2022-08-03T10:28:28.605Z,29.72
2022-08-03T10:31:01.516Z,29.50
2022-08-03T10:33:50.774Z,29.68
2022-08-03T10:36:26.099Z,29.69
2022-08-03T10:38:57.582Z,29.65
2022-08-03T10:41:34.169Z,29.52
2022-08-03T10:44:09.019Z,29.55
2022-08-03T10:46:45.144Z,29.49
2022-08-03T10:49:25.491Z,29.63
2022-08-03T10:52:12.956Z,29.57
2022-08-03T10:55:10.003Z,29.79
2022-08-03T10:57:52.615Z,30.11
2022-08-03T11:00:30.884Z,29.84
2022-08-03T11:03:21.486Z,29.88
2022-08-03T11:05:54.653Z,30.13
2022-08-03T11:08:28.110Z,30.02
2022-08-03T11:11:00.388Z,30.19
2022-08-03T11:13:33.725Z,30.03
2022-08-03T11:16:10.905Z,30.18
2022-08-03T11:18:59.923Z,29.88
2022-08-03T11:22:00.097Z,30.05
2022-08-03T11:25:00.120Z,30.23
2022-08-03T11:27:37.894Z,30.11
2022-08-03T11:30:11.548Z,30.14
2022-08-03T11:33:00.787Z,30.13
2022-08-03T11:35:36.008Z,30.24
2022-08-03T11:38:11.929Z,30.04
2022-08-03T11:40:47.563Z,30.14
2022-08-03T11:43:47.512Z,30.02
2022-08-03T11:46:28.538Z,29.71
2022-08-03T11:49:10.922Z,29.99
2022-08-03T11:51:44.095Z,29.96
2022-08-03T11:54:14.359Z,29.97
2022-08-03T11:56:48.875Z,30.02
2022-08-03T11:59:22.192Z,30.06
2022-08-03T12:01:53.495Z,30.13
2022-08-03T12:04:23.663Z,30.01
2022-08-03T12:07:05.976Z,30.18
2022-08-03T12:09:38.298Z,30.38
2022-08-03T12:12:08.982Z,30.71
2022-08-03T12:14:48.540Z,30.42
2022-08-03T12:17:22.621Z,30.52
2022-08-03T12:19:53.107Z,30.30
2022-08-03T12:22:38.032Z,30.66
2022-08-03T12:25:11.533Z,31.14
2022-08-03T12:27:41.760Z,31.89
2022-08-03T12:30:13.845Z,32.96
2022-08-03T12:32:46.313Z,33.93
2022-08-03T12:35:26.662Z,34.58
2022-08-03T12:37:59.504Z,35.86
2022-08-03T12:40:30.137Z,36.47
2022-08-03T12:43:00.441Z,35.98
2022-08-03T12:45:34.819Z,36.84
2022-08-03T12:48:05.623Z,36.76
2022-08-03T12:50:37.209Z,36.53
2022-08-03T12:53:11.478Z,36.43
2022-08-03T12:55:57.399Z,36.11
2022-08-03T12:58:35.777Z,35.99
2022-08-03T13:01:09.650Z,37.15
2022-08-03T13:03:45.864Z,36.66
2022-08-03T13:06:21.680Z,37.70
2022-08-03T13:09:05.472Z,37.91
2022-08-03T13:11:55.891Z,35.88
2022-08-03T13:14:26.347Z,36.89
2022-08-03T13:16:56.566Z,36.70
2022-08-03T13:19:26.760Z,36.97
2022-08-03T13:22:03.574Z,37.31
2022-08-03T13:24:37.379Z,36.56
2022-08-03T13:28:02.087Z,36.47
2022-08-03T13:29:58.704Z,37.24
2022-08-03T13:32:28.875Z,37.31
2022-08-03T13:34:59.172Z,37.40
2022-08-03T13:37:29.666Z,37.09
2022-08-03T13:40:04.533Z,37.89
2022-08-03T13:42:38.931Z,37.56
2022-08-03T13:45:11.582Z,36.73
2022-08-03T13:47:41.852Z,37.25
2022-08-03T13:50:12.123Z,38.20
2022-08-03T13:52:42.285Z,37.63
2022-08-03T13:55:15.533Z,38.63
2022-08-03T13:58:02.872Z,36.77
2022-08-03T14:00:35.966Z,37.36
2022-08-03T14:03:14.148Z,37.89
2022-08-03T14:05:45.781Z,38.02
2022-08-03T14:08:16.052Z,37.94
2022-08-03T14:10:49.066Z,37.89
2022-08-03T14:13:19.311Z,37.78
2022-08-03T14:15:51.338Z,38.14
2022-08-03T14:18:29.152Z,36.98
2022-08-03T14:21:07.023Z,36.30
2022-08-03T14:23:38.845Z,36.89
2022-08-03T14:26:14.728Z,36.28
2022-08-03T14:28:45.033Z,37.35
2022-08-03T14:32:09.200Z,35.97
2022-08-03T14:34:05.496Z,35.97
2022-08-03T14:36:35.875Z,36.07
2022-08-03T14:39:06.406Z,35.93
2022-08-03T14:41:39.318Z,35.83
2022-08-03T14:44:09.495Z,35.73
2022-08-03T14:46:39.705Z,35.40
2022-08-03T14:50:31.386Z,35.53
2022-08-03T14:52:00.119Z,35.72
2022-08-03T14:54:31.611Z,35.61
2022-08-03T14:57:04.436Z,35.04
2022-08-03T14:59:56.401Z,35.70
2022-08-03T15:02:25.033Z,35.66
2022-08-03T15:04:55.577Z,35.86
2022-08-03T15:07:25.950Z,35.04
2022-08-03T15:09:56.158Z,34.89
2022-08-03T15:12:28.977Z,35.57
2022-08-03T15:14:59.519Z,34.61
2022-08-03T15:17:29.783Z,35.33
2022-08-03T15:20:22.567Z,35.70
2022-08-03T15:22:53.329Z,35.43
2022-08-03T15:26:28.727Z,34.86
2022-08-03T15:28:16.419Z,35.21
2022-08-03T15:30:46.664Z,35.72
2022-08-03T15:33:16.875Z,35.72
2022-08-03T15:35:47.858Z,34.80
2022-08-03T15:38:18.240Z,34.55
2022-08-03T15:40:49.103Z,35.65
2022-08-03T15:43:21.891Z,34.19
2022-08-03T15:46:12.809Z,34.07
2022-08-03T15:48:42.594Z,34.69
2022-08-03T15:51:13.282Z,34.62
2022-08-03T15:53:43.570Z,34.82
2022-08-03T15:56:18.278Z,34.15
2022-08-03T15:59:03.616Z,33.63
2022-08-03T16:01:41.939Z,34.01
2022-08-03T16:04:12.259Z,34.54
2022-08-03T16:06:42.488Z,34.26
2022-08-03T16:09:24.121Z,34.36
2022-08-03T16:12:02.855Z,34.58
2022-08-03T16:14:46.897Z,34.54
2022-08-03T16:17:22.594Z,34.66
2022-08-03T16:19:55.083Z,34.44
2022-08-03T16:22:25.683Z,33.96
2022-08-03T16:24:56.725Z,33.42
2022-08-03T16:27:37.566Z,33.71
2022-08-03T16:30:20.325Z,34.27
2022-08-03T16:32:50.546Z,33.66
2022-08-03T16:35:21.360Z,34.15
2022-08-03T16:37:56.474Z,34.01
2022-08-03T16:40:27.989Z,34.03
2022-08-03T16:42:58.222Z,33.80
2022-08-03T16:45:31.075Z,33.66
2022-08-03T16:48:05.531Z,33.39
2022-08-03T16:50:37.337Z,33.14
2022-08-03T16:53:09.822Z,32.55
2022-08-03T16:55:53.522Z,32.29
2022-08-03T16:58:34.449Z,32.28
2022-08-03T17:01:22.283Z,32.60
2022-08-03T17:04:02.377Z,31.96
2022-08-03T17:06:34.151Z,31.70
2022-08-03T17:09:08.358Z,31.19
2022-08-03T17:11:46.845Z,31.25
2022-08-03T17:14:21.774Z,31.09
2022-08-03T17:16:58.434Z,30.90
2022-08-03T17:19:29.267Z,30.03
2022-08-03T17:22:04.853Z,29.62
2022-08-03T17:24:41.497Z,29.48
2022-08-03T17:27:23.179Z,28.98
2022-08-03T17:30:11.867Z,28.82
2022-08-03T17:32:56.572Z,28.74
2022-08-03T17:35:36.682Z,28.79
2022-08-03T17:38:14.458Z,28.62
2022-08-03T17:40:50.040Z,28.69
2022-08-03T17:44:08.195Z,28.48
2022-08-03T17:46:13.158Z,28.36
2022-08-03T17:48:45.956Z,28.32
2022-08-03T17:51:21.135Z,28.09
2022-08-03T17:53:56.858Z,28.17
2022-08-03T17:56:44.994Z,28.31
